createdAt,value
2022-09-09T00:00:45.006Z,79.46
2022-09-09T00:02:46.393Z,79.59
2022-09-09T00:04:47.770Z,79.48
2022-09-09T00:06:49.063Z,79.46
2022-09-09T00:08:50.340Z,79.77
2022-09-09T00:10:52.304Z,79.50
2022-09-09T00:12:53.615Z,79.55
2022-09-09T00:14:55.112Z,79.53
2022-09-09T00:16:56.518Z,79.98
2022-09-09T00:18:57.999Z,79.68
2022-09-09T00:20:59.281Z,79.40
2022-09-09T00:23:00.578Z,79.13
2022-09-09T00:25:01.858Z,79.24
2022-09-09T00:27:03.186Z,79.16
2022-09-09T00:29:04.479Z,79.25
2022-09-09T00:31:05.835Z,79.24
2022-09-09T00:33:09.065Z,79.49
2022-09-09T00:35:12.159Z,79.04
2022-09-09T00:37:13.451Z,79.33
2022-09-09T00:39:14.917Z,79.35
2022-09-09T00:41:16.194Z,79.27
2022-09-09T00:43:17.483Z,79.34
2022-09-09T00:45:18.861Z,78.44
2022-09-09T00:47:20.127Z,79.41
2022-09-09T00:49:21.877Z,79.50
2022-09-09T00:51:24.737Z,79.33
2022-09-09T00:53:26.076Z,79.33
2022-09-09T00:55:27.886Z,79.02
2022-09-09T00:57:29.389Z,79.19
2022-09-09T00:59:30.723Z,79.38
2022-09-09T01:01:32.310Z,79.08
2022-09-09T01:03:33.699Z,79.31
2022-09-09T01:05:36.043Z,79.41
2022-09-09T01:07:37.523Z,79.48
2022-09-09T01:09:38.955Z,79.50
2022-09-09T01:11:40.287Z,79.72
2022-09-09T01:13:41.604Z,79.45
2022-09-09T01:15:43.563Z,79.30
2022-09-09T01:17:44.840Z,79.27
2022-09-09T01:19:46.923Z,79.40
2022-09-09T01:21:48.191Z,79.04
2022-09-09T01:23:50.139Z,79.04
2022-09-09T01:25:51.418Z,79.78
2022-09-09T01:27:52.708Z,79.19
2022-09-09T01:29:53.965Z,79.04
2022-09-09T01:31:55.280Z,79.25
2022-09-09T01:33:56.550Z,79.70
2022-09-09T01:35:57.874Z,79.23
2022-09-09T01:37:59.148Z,79.39
2022-09-09T01:40:00.690Z,79.24
2022-09-09T01:42:02.011Z,79.18
2022-09-09T01:44:03.315Z,79.19
2022-09-09T01:46:04.645Z,79.59
2022-09-09T01:48:06.010Z,79.39
2022-09-09T01:50:07.395Z,79.02
2022-09-09T01:52:09.876Z,79.63
2022-09-09T01:54:11.380Z,79.49
2022-09-09T01:56:12.660Z,79.08
2022-09-09T01:58:14.120Z,79.36
2022-09-09T02:00:15.395Z,79.36
2022-09-09T02:02:16.744Z,79.40
2022-09-09T02:04:18.059Z,80.09
2022-09-09T02:06:19.331Z,80.05
2022-09-09T02:08:20.594Z,80.17
2022-09-09T02:10:21.875Z,79.85
2022-09-09T02:12:23.355Z,80.01
2022-09-09T02:14:24.665Z,79.98
2022-09-09T02:16:26.120Z,80.17
2022-09-09T02:18:27.473Z,79.82
2022-09-09T02:20:33.376Z,80.10
2022-09-09T02:22:36.268Z,79.87
2022-09-09T02:24:37.634Z,79.58
2022-09-09T02:26:38.919Z,79.93
2022-09-09T02:28:40.190Z,79.80
2022-09-09T02:30:41.793Z,79.90
2022-09-09T02:32:43.111Z,79.55
2022-09-09T02:34:44.370Z,80.14
2022-09-09T02:36:46.586Z,79.61
2022-09-09T02:38:51.578Z,79.94
2022-09-09T02:40:52.939Z,79.92
2022-09-09T02:42:54.214Z,79.51
2022-09-09T02:44:55.486Z,79.06
2022-09-09T02:46:56.747Z,78.33
2022-09-09T02:48:58.053Z,78.20
2022-09-09T02:50:59.362Z,78.07
2022-09-09T02:53:00.631Z,77.99
2022-09-09T02:55:01.925Z,78.06
2022-09-09T02:57:03.205Z,78.18
2022-09-09T02:59:04.903Z,78.23
2022-09-09T03:01:06.287Z,78.47
2022-09-09T03:03:07.668Z,77.70
2022-09-09T03:05:08.950Z,77.11
2022-09-09T03:07:11.006Z,77.27
2022-09-09T03:09:12.328Z,77.53
2022-09-09T03:11:15.074Z,77.53
2022-09-09T03:13:16.399Z,77.81
2022-09-09T03:15:17.686Z,77.75
2022-09-09T03:17:19.118Z,77.45
2022-09-09T03:19:20.448Z,77.54
2022-09-09T03:21:21.717Z,77.34
2022-09-09T03:23:23.001Z,77.73
2022-09-09T03:25:24.933Z,77.48
2022-09-09T03:27:26.207Z,77.30
2022-09-09T03:29:27.679Z,77.17
2022-09-09T03:31:31.257Z,77.42
2022-09-09T03:33:32.582Z,77.65
2022-09-09T03:35:33.857Z,77.50
2022-09-09T03:37:35.127Z,77.73
2022-09-09T03:39:36.453Z,77.77
2022-09-09T03:41:38.313Z,77.67
2022-09-09T03:43:39.627Z,77.76
2022-09-09T03:45:40.954Z,77.37
2022-09-09T03:47:42.234Z,77.47
2022-09-09T03:49:43.510Z,77.59
2022-09-09T03:51:44.778Z,77.33
2022-09-09T03:53:46.055Z,77.87
2022-09-09T03:55:47.483Z,77.46
2022-09-09T03:57:48.754Z,77.47
2022-09-09T03:59:50.042Z,77.50
2022-09-09T04:01:51.630Z,76.99
2022-09-09T04:03:53.639Z,77.09
2022-09-09T04:05:54.971Z,77.57
2022-09-09T04:07:56.218Z,77.04
2022-09-09T04:09:57.935Z,77.19
2022-09-09T04:11:59.225Z,77.23
2022-09-09T04:14:00.506Z,77.09
2022-09-09T04:16:01.864Z,77.09
2022-09-09T04:18:03.235Z,77.50
2022-09-09T04:20:04.596Z,77.12
2022-09-09T04:22:05.918Z,77.22
2022-09-09T04:24:07.399Z,76.97
2022-09-09T04:26:08.735Z,77.46
2022-09-09T04:28:10.007Z,77.03
2022-09-09T04:30:11.342Z,77.22
2022-09-09T04:32:12.624Z,77.20
2022-09-09T04:34:13.947Z,76.93
2022-09-09T04:36:15.210Z,76.97
2022-09-09T04:38:16.498Z,76.99
2022-09-09T04:40:17.899Z,77.32
2022-09-09T04:42:20.238Z,77.18
2022-09-09T04:44:21.531Z,76.85
2022-09-09T04:46:23.696Z,76.84
2022-09-09T04:48:26.274Z,76.80
2022-09-09T04:50:27.547Z,76.79
2022-09-09T04:52:29.136Z,77.09
2022-09-09T04:54:30.547Z,77.00
2022-09-09T04:56:31.826Z,76.86
2022-09-09T04:58:33.242Z,77.00
2022-09-09T05:00:34.926Z,76.69
2022-09-09T05:02:36.314Z,76.79
2022-09-09T05:04:37.724Z,76.76
2022-09-09T05:06:39.017Z,76.67
2022-09-09T05:08:40.291Z,76.98
2022-09-09T05:10:42.936Z,76.75
2022-09-09T05:12:44.216Z,76.64
2022-09-09T05:14:45.487Z,76.55
2022-09-09T05:16:48.071Z,76.70
2022-09-09T05:18:49.953Z,76.51
2022-09-09T05:20:52.008Z,76.56
2022-09-09T05:22:53.312Z,76.58
2022-09-09T05:24:54.603Z,76.69
2022-09-09T05:26:57.207Z,76.56
2022-09-09T05:29:00.027Z,76.85
2022-09-09T05:31:05.740Z,76.62
2022-09-09T05:33:07.722Z,76.77
2022-09-09T05:35:08.981Z,76.64
2022-09-09T05:37:10.518Z,76.68
2022-09-09T05:39:13.024Z,76.52
2022-09-09T05:41:16.572Z,76.48
2022-09-09T05:43:17.866Z,76.67
2022-09-09T05:45:19.178Z,76.21
2022-09-09T05:47:20.446Z,76.57
2022-09-09T05:49:22.475Z,76.73
2022-09-09T05:51:25.087Z,76.32
2022-09-09T05:53:26.370Z,76.56
2022-09-09T05:55:27.643Z,76.32
2022-09-09T05:57:28.931Z,76.38
2022-09-09T05:59:30.266Z,76.40
2022-09-09T06:01:31.623Z,76.42
2022-09-09T06:03:32.944Z,76.47
2022-09-09T06:05:35.547Z,76.35
2022-09-09T06:07:36.854Z,76.55
2022-09-09T06:09:38.131Z,76.68
2022-09-09T06:11:39.424Z,76.34
2022-09-09T06:13:40.835Z,76.72
2022-09-09T06:15:42.106Z,76.30
2022-09-09T06:17:44.179Z,76.94
2022-09-09T06:19:45.451Z,76.44
2022-09-09T06:21:48.554Z,76.08
2022-09-09T06:23:49.870Z,76.44
2022-09-09T06:25:52.015Z,76.49
2022-09-09T06:27:53.286Z,76.52
2022-09-09T06:29:54.558Z,76.25
2022-09-09T06:31:56.078Z,76.26
2022-09-09T06:33:57.359Z,76.14
2022-09-09T06:35:59.127Z,76.25
2022-09-09T06:38:00.417Z,76.12
2022-09-09T06:40:01.836Z,76.84
2022-09-09T06:42:03.430Z,76.42
2022-09-09T06:44:04.746Z,76.56
2022-09-09T06:46:06.518Z,76.38
2022-09-09T06:48:07.807Z,76.19
2022-09-09T06:50:09.342Z,76.58
2022-09-09T06:52:10.695Z,76.06
2022-09-09T06:54:12.206Z,76.38
2022-09-09T06:56:17.809Z,76.06
2022-09-09T06:58:19.306Z,76.32
2022-09-09T07:00:20.614Z,76.14
2022-09-09T07:02:22.717Z,76.15
2022-09-09T07:04:24.250Z,76.34
2022-09-09T07:06:25.564Z,76.15
2022-09-09T07:08:27.584Z,76.37
2022-09-09T07:10:28.858Z,76.25
2022-09-09T07:12:30.118Z,76.06
2022-09-09T07:14:31.378Z,76.62
2022-09-09T07:16:34.519Z,76.10
2022-09-09T07:18:36.059Z,76.07
2022-09-09T07:20:37.466Z,76.38
2022-09-09T07:22:38.755Z,76.12
2022-09-09T07:24:40.019Z,76.33
2022-09-09T07:26:41.348Z,76.34
2022-09-09T07:28:42.635Z,76.57
2022-09-09T07:30:43.974Z,76.06
2022-09-09T07:32:45.260Z,76.11
2022-09-09T07:34:48.000Z,76.11
2022-09-09T07:36:49.866Z,76.37
2022-09-09T07:38:52.243Z,76.10
2022-09-09T07:40:53.504Z,76.52
2022-09-09T07:42:54.761Z,76.40
2022-09-09T07:44:56.058Z,76.07
2022-09-09T07:46:57.521Z,75.82
2022-09-09T07:48:59.641Z,75.73
2022-09-09T07:51:01.452Z,75.72
2022-09-09T07:53:03.533Z,76.01
2022-09-09T07:55:05.563Z,75.34
2022-09-09T07:57:06.866Z,75.87
2022-09-09T07:59:08.349Z,75.35
2022-09-09T08:01:09.646Z,75.26
2022-09-09T08:03:10.966Z,75.40
2022-09-09T08:05:12.559Z,75.06
2022-09-09T08:07:14.335Z,74.97
2022-09-09T08:09:15.602Z,75.22
2022-09-09T08:11:16.923Z,75.31
2022-09-09T08:13:19.128Z,74.93
2022-09-09T08:15:20.444Z,74.80
2022-09-09T08:17:21.747Z,75.24
2022-09-09T08:19:23.658Z,74.84
2022-09-09T08:21:25.035Z,74.80
2022-09-09T08:23:26.875Z,75.09
2022-09-09T08:25:28.192Z,75.13
2022-09-09T08:27:29.469Z,75.01
2022-09-09T08:29:30.781Z,74.69
2022-09-09T08:31:32.087Z,74.59
2022-09-09T08:33:34.395Z,74.75
2022-09-09T08:35:35.721Z,75.00
2022-09-09T08:37:37.030Z,75.04
2022-09-09T08:39:38.406Z,75.33
2022-09-09T08:41:40.798Z,75.07
2022-09-09T08:43:43.028Z,74.64
2022-09-09T08:45:44.307Z,75.04
2022-09-09T08:47:48.172Z,74.63
2022-09-09T08:49:50.803Z,74.56
2022-09-09T08:51:52.062Z,74.65
2022-09-09T08:53:57.731Z,75.17
2022-09-09T08:56:00.502Z,75.16
2022-09-09T08:58:02.440Z,74.88
2022-09-09T09:00:03.751Z,74.31
2022-09-09T09:02:05.109Z,74.83
2022-09-09T09:04:06.390Z,74.18
2022-09-09T09:06:07.779Z,74.61
2022-09-09T09:08:09.065Z,74.53
2022-09-09T09:10:30.584Z,74.47
2022-09-09T09:12:31.676Z,74.34
2022-09-09T09:14:35.181Z,74.50
2022-09-09T09:16:37.582Z,74.64
2022-09-09T09:18:38.901Z,74.27
2022-09-09T09:20:40.155Z,74.58
2022-09-09T09:22:41.439Z,74.03
2022-09-09T09:24:43.420Z,74.37
2022-09-09T09:26:45.029Z,74.51
2022-09-09T09:28:46.383Z,74.44
2022-09-09T09:30:47.713Z,73.95
2022-09-09T09:32:49.006Z,74.36
2022-09-09T09:34:50.303Z,74.49
2022-09-09T09:36:51.602Z,74.63
2022-09-09T09:41:14.119Z,74.20
2022-09-09T09:43:15.399Z,74.48
2022-09-09T09:45:17.695Z,73.95
2022-09-09T09:47:19.064Z,74.02
2022-09-09T09:49:20.347Z,73.96
2022-09-09T09:51:21.630Z,74.74
2022-09-09T09:53:22.959Z,74.61
2022-09-09T09:55:25.167Z,74.84
2022-09-09T09:57:26.470Z,74.84
2022-09-09T09:59:39.285Z,74.85
2022-09-09T10:01:41.526Z,74.68
2022-09-09T10:03:42.843Z,74.65
2022-09-09T10:05:44.132Z,74.74
2022-09-09T10:07:46.221Z,74.60
2022-09-09T10:09:47.524Z,75.00
2022-09-09T10:11:49.246Z,74.87
2022-09-09T10:13:50.594Z,75.28
2022-09-09T10:15:52.246Z,75.21
2022-09-09T10:17:53.626Z,75.27
2022-09-09T10:19:56.179Z,75.37
2022-09-09T10:21:58.739Z,75.32
2022-09-09T10:24:00.146Z,75.30
2022-09-09T10:26:01.719Z,75.34
2022-09-09T10:28:06.182Z,75.33
2022-09-09T10:30:11.031Z,75.37
2022-09-09T10:32:12.394Z,75.03
2022-09-09T10:34:14.390Z,75.16
2022-09-09T10:36:15.696Z,75.11
2022-09-09T10:38:17.028Z,75.33
2022-09-09T10:40:19.229Z,75.32
2022-09-09T10:42:20.511Z,75.03
2022-09-09T10:44:21.823Z,75.26
2022-09-09T10:46:23.710Z,75.04
2022-09-09T10:48:27.338Z,74.78
2022-09-09T10:50:57.191Z,75.16
2022-09-09T10:52:49.927Z,74.77
2022-09-09T10:54:51.244Z,75.07
2022-09-09T10:56:54.439Z,74.99
2022-09-09T10:58:55.703Z,74.71
2022-09-09T11:00:58.290Z,74.68
2022-09-09T11:02:59.644Z,74.93
2022-09-09T11:05:00.915Z,75.00
2022-09-09T11:07:07.467Z,74.85
2022-09-09T11:09:12.331Z,74.97
2022-09-09T11:11:13.651Z,75.13
2022-09-09T11:13:16.787Z,75.15
2022-09-09T11:15:18.075Z,74.39
2022-09-09T11:17:19.404Z,74.82
2022-09-09T11:19:22.270Z,74.59
2022-09-09T11:21:23.582Z,74.63
2022-09-09T11:23:24.871Z,74.82
2022-09-09T11:25:26.147Z,74.87
2022-09-09T11:27:27.471Z,75.05
2022-09-09T11:29:29.427Z,75.10
2022-09-09T11:31:32.124Z,74.79
2022-09-09T11:33:33.434Z,74.65
2022-09-09T11:35:35.489Z,75.05
2022-09-09T11:37:39.095Z,74.89
2022-09-09T11:39:40.777Z,74.97
2022-09-09T11:41:42.635Z,74.95
2022-09-09T11:43:43.965Z,74.69
2022-09-09T11:45:45.343Z,74.91
2022-09-09T11:47:46.662Z,75.31
2022-09-09T11:49:48.260Z,75.15
2022-09-09T11:51:50.624Z,74.93
2022-09-09T11:53:51.946Z,75.00
2022-09-09T11:55:54.503Z,74.83
2022-09-09T11:57:55.767Z,74.52
2022-09-09T11:59:57.555Z,74.81
2022-09-09T12:01:58.868Z,75.22
2022-09-09T12:04:00.236Z,75.34
2022-09-09T12:06:01.629Z,74.86
2022-09-09T12:08:04.514Z,75.24
2022-09-09T12:10:05.859Z,75.19
2022-09-09T12:12:07.260Z,75.12
2022-09-09T12:14:08.979Z,74.83
2022-09-09T12:16:10.311Z,75.05
2022-09-09T12:18:11.615Z,75.08
2022-09-09T12:20:12.931Z,74.60
2022-09-09T12:22:15.465Z,73.67
2022-09-09T12:24:17.294Z,73.34
2022-09-09T12:26:18.647Z,73.49
2022-09-09T12:28:19.975Z,73.22
2022-09-09T12:30:22.583Z,72.57
2022-09-09T12:32:23.871Z,74.53
2022-09-09T12:34:26.391Z,71.34
2022-09-09T12:36:27.719Z,70.41
2022-09-09T12:38:29.615Z,70.66
2022-09-09T12:40:30.951Z,70.72
2022-09-09T12:42:37.891Z,69.87
2022-09-09T12:44:43.414Z,70.74
2022-09-09T12:46:44.698Z,70.94
2022-09-09T12:48:46.751Z,70.11
2022-09-09T12:50:48.104Z,69.71
2022-09-09T12:52:49.386Z,69.71
2022-09-09T12:54:52.955Z,70.37
2022-09-09T12:56:54.268Z,70.93
2022-09-09T12:58:55.555Z,70.07
2022-09-09T13:01:00.806Z,70.01
2022-09-09T13:03:02.162Z,69.68
2022-09-09T13:05:03.522Z,69.92
2022-09-09T13:07:05.223Z,69.63
2022-09-09T13:09:06.606Z,70.07
2022-09-09T13:11:07.938Z,70.16
2022-09-09T13:13:10.679Z,68.93
2022-09-09T13:15:11.955Z,69.21
2022-09-09T13:17:13.242Z,69.32
2022-09-09T13:19:14.523Z,69.97
2022-09-09T13:21:16.182Z,69.52
2022-09-09T13:23:18.126Z,70.27
2022-09-09T13:25:19.611Z,69.68
2022-09-09T13:27:21.432Z,69.43
2022-09-09T13:29:22.850Z,70.39
2022-09-09T13:31:24.356Z,70.75
2022-09-09T13:33:25.682Z,70.62
2022-09-09T13:35:27.211Z,70.29
2022-09-09T13:37:28.638Z,70.84
2022-09-09T13:39:29.923Z,71.02
2022-09-09T13:41:31.538Z,71.64
2022-09-09T13:43:32.942Z,71.02
2022-09-09T13:45:35.993Z,71.42
2022-09-09T13:47:37.304Z,72.21
2022-09-09T13:49:38.622Z,72.64
2022-09-09T13:51:39.903Z,70.96
2022-09-09T13:53:41.180Z,70.97
2022-09-09T13:55:42.466Z,70.32
2022-09-09T13:57:44.944Z,69.51
2022-09-09T14:00:04.970Z,69.48
2022-09-09T14:02:06.930Z,70.04
2022-09-09T14:04:08.238Z,70.36
2022-09-09T14:06:09.510Z,70.29
2022-09-09T14:08:10.805Z,70.09
2022-09-09T14:10:12.139Z,69.85
2022-09-09T14:12:13.429Z,69.41
2022-09-09T14:14:14.747Z,70.02
2022-09-09T14:16:16.083Z,69.34
2022-09-09T14:18:17.407Z,70.96
2022-09-09T14:20:20.169Z,71.61
2022-09-09T14:22:21.494Z,71.30
2022-09-09T14:24:22.757Z,70.81
2022-09-09T14:26:24.555Z,70.49
2022-09-09T14:28:51.910Z,70.05
2022-09-09T14:30:47.879Z,68.90
2022-09-09T14:32:49.185Z,69.98
2022-09-09T14:34:50.712Z,68.95
2022-09-09T14:36:52.259Z,70.68
2022-09-09T14:38:53.586Z,69.41
2022-09-09T14:40:54.911Z,69.40
2022-09-09T14:42:57.435Z,69.47
2022-09-09T14:44:58.714Z,70.05
2022-09-09T14:47:00.045Z,70.30
2022-09-09T14:49:01.385Z,70.64
2022-09-09T14:51:02.777Z,71.27
2022-09-09T14:53:04.051Z,71.82
2022-09-09T14:55:05.331Z,72.16
2022-09-09T14:57:06.603Z,72.57
2022-09-09T14:59:07.878Z,72.34
2022-09-09T15:01:10.929Z,71.89
2022-09-09T15:03:12.312Z,71.87
2022-09-09T15:05:13.652Z,71.59
2022-09-09T15:07:14.922Z,72.02
2022-09-09T15:09:16.283Z,72.08
2022-09-09T15:11:17.564Z,72.12
2022-09-09T15:13:18.891Z,72.22
2022-09-09T15:15:20.183Z,72.33
2022-09-09T15:17:21.574Z,72.22
2022-09-09T15:19:23.935Z,71.93
2022-09-09T15:21:25.249Z,72.26
2022-09-09T15:23:26.515Z,71.45
2022-09-09T15:25:27.919Z,71.97
2022-09-09T15:27:30.006Z,71.79
2022-09-09T15:29:31.278Z,70.88
2022-09-09T15:31:32.880Z,70.41
2022-09-09T15:33:34.450Z,71.37
2022-09-09T15:35:35.766Z,71.08
2022-09-09T15:37:37.083Z,71.44
2022-09-09T15:39:39.059Z,71.16
2022-09-09T15:41:40.435Z,71.77
2022-09-09T15:43:41.736Z,71.67
2022-09-09T15:45:43.064Z,71.70
2022-09-09T15:47:44.650Z,72.06
2022-09-09T15:49:46.002Z,71.70
2022-09-09T15:51:47.287Z,71.96
2022-09-09T15:53:48.592Z,72.11
2022-09-09T15:55:54.315Z,72.40
2022-09-09T15:57:56.079Z,71.84
2022-09-09T15:59:57.387Z,71.66
2022-09-09T16:02:00.861Z,72.29
2022-09-09T16:04:02.299Z,72.45
2022-09-09T16:06:03.611Z,73.06
2022-09-09T16:08:05.050Z,72.94
2022-09-09T16:10:06.905Z,73.17
2022-09-09T16:12:10.639Z,73.03
2022-09-09T16:20:17.095Z,73.57
2022-09-09T16:22:19.109Z,73.49
2022-09-09T16:24:20.383Z,73.63
2022-09-09T16:26:21.830Z,73.61
2022-09-09T16:28:23.378Z,74.23
2022-09-09T16:30:24.639Z,73.86
2022-09-09T16:32:25.935Z,73.98
2022-09-09T16:34:27.208Z,73.76
2022-09-09T16:36:28.513Z,74.01
2022-09-09T16:38:31.051Z,74.47
2022-09-09T16:40:32.379Z,73.96
2022-09-09T16:42:38.823Z,74.13
2022-09-09T16:44:40.828Z,74.00
2022-09-09T16:46:42.671Z,74.47
2022-09-09T16:48:47.011Z,74.51
2022-09-09T16:50:49.079Z,74.26
2022-09-09T16:52:50.364Z,74.23
2022-09-09T16:54:51.636Z,74.23
2022-09-09T16:56:52.961Z,74.21
2022-09-09T16:58:56.567Z,75.11
2022-09-09T17:00:57.834Z,74.55
2022-09-09T17:02:59.879Z,74.53
2022-09-09T17:05:01.183Z,74.76
2022-09-09T17:07:03.063Z,75.22
2022-09-09T17:09:04.429Z,74.93
2022-09-09T17:11:05.752Z,75.03
2022-09-09T17:13:07.199Z,75.19
2022-09-09T17:15:08.531Z,74.89
2022-09-09T17:17:30.619Z,75.04
2022-09-09T17:19:31.118Z,75.28
2022-09-09T17:21:32.390Z,75.47
2022-09-09T17:23:33.903Z,75.46
2022-09-09T17:25:35.247Z,75.65
2022-09-09T17:27:36.541Z,75.30
2022-09-09T17:29:37.821Z,75.14
2022-09-09T17:31:39.296Z,75.44
2022-09-09T17:33:40.646Z,75.51
2022-09-09T17:35:41.922Z,75.69
2022-09-09T17:37:43.228Z,75.48
2022-09-09T17:39:44.533Z,75.56
2022-09-09T17:41:46.495Z,75.64
2022-09-09T17:43:47.799Z,75.46
2022-09-09T17:45:50.554Z,75.41
2022-09-09T17:47:51.858Z,74.13
2022-09-09T17:49:53.156Z,73.88
2022-09-09T17:51:55.432Z,73.96
2022-09-09T17:53:56.735Z,74.08
2022-09-09T17:55:58.099Z,73.55
2022-09-09T17:58:00.138Z,73.97
2022-09-09T18:00:01.410Z,73.34
2022-09-09T18:02:05.461Z,74.01
2022-09-09T18:04:08.024Z,73.96
2022-09-09T18:06:09.303Z,74.06
2022-09-09T18:08:10.632Z,73.72
2022-09-09T18:10:12.178Z,74.08
2022-09-09T18:12:13.629Z,73.74
2022-09-09T18:14:15.685Z,73.27
2022-09-09T18:16:18.639Z,73.61
2022-09-09T18:18:20.089Z,73.25
2022-09-09T18:20:22.277Z,73.80
2022-09-09T18:22:23.585Z,73.82
2022-09-09T18:24:25.527Z,73.52
2022-09-09T18:26:27.503Z,73.56
2022-09-09T18:28:28.862Z,73.13
2022-09-09T18:30:31.108Z,73.34
2022-09-09T18:32:32.407Z,73.46
2022-09-09T18:34:33.681Z,73.11
2022-09-09T18:36:34.998Z,73.58
2022-09-09T18:38:37.281Z,72.86
2022-09-09T18:40:38.811Z,73.44
2022-09-09T18:42:40.090Z,73.09
2022-09-09T18:44:43.221Z,73.65
2022-09-09T18:46:44.515Z,73.12
2022-09-09T18:48:45.857Z,73.44
2022-09-09T18:50:47.127Z,73.58
2022-09-09T18:52:49.439Z,73.19
2022-09-09T18:54:51.135Z,73.12
2022-09-09T18:56:53.239Z,71.86
2022-09-09T18:58:55.835Z,72.95
2022-09-09T19:00:57.234Z,74.04
2022-09-09T19:02:58.583Z,72.51
2022-09-09T19:04:59.895Z,71.98
2022-09-09T19:07:01.242Z,72.69
2022-09-09T19:09:04.142Z,72.57
2022-09-09T19:11:06.385Z,73.19
2022-09-09T19:13:10.252Z,71.66
2022-09-09T19:15:11.602Z,71.71
2022-09-09T19:17:13.320Z,71.64
2022-09-09T19:19:14.692Z,71.98
2022-09-09T19:21:19.981Z,71.59
2022-09-09T19:23:21.463Z,71.94
2022-09-09T19:25:22.922Z,71.98
2022-09-09T19:27:24.207Z,71.70
2022-09-09T19:29:25.639Z,71.51
2022-09-09T19:31:28.125Z,71.08
2022-09-09T19:33:29.464Z,71.10
2022-09-09T19:35:31.685Z,72.14
2022-09-09T19:37:33.015Z,69.98
2022-09-09T19:39:34.484Z,69.95
2022-09-09T19:41:36.652Z,70.26
2022-09-09T19:43:37.962Z,70.27
2022-09-09T19:45:43.976Z,70.67
2022-09-09T19:47:48.360Z,71.67
2022-09-09T19:49:50.482Z,71.25
2022-09-09T19:51:52.417Z,70.80
2022-09-09T19:53:57.903Z,71.64
2022-09-09T19:55:59.223Z,72.08
2022-09-09T19:58:00.515Z,72.70
2022-09-09T20:00:02.549Z,72.03
2022-09-09T20:02:03.920Z,71.67
2022-09-09T20:04:07.606Z,71.65
2022-09-09T20:06:08.951Z,71.87
2022-09-09T20:08:10.240Z,71.59
2022-09-09T20:10:11.931Z,72.29
2022-09-09T20:12:13.237Z,72.29
2022-09-09T20:14:14.871Z,71.79
2022-09-09T20:16:16.197Z,72.35
2022-09-09T20:18:17.498Z,71.97
2022-09-09T20:20:19.741Z,72.27
2022-09-09T20:22:21.035Z,71.82
2022-09-09T20:24:25.126Z,72.05
2022-09-09T20:26:26.566Z,72.59
2022-09-09T20:28:28.911Z,72.71
2022-09-09T20:30:30.926Z,73.18
2022-09-09T20:32:32.252Z,73.47
2022-09-09T20:34:33.599Z,73.67
2022-09-09T20:36:35.486Z,72.98
2022-09-09T20:38:38.229Z,72.86
2022-09-09T20:40:39.881Z,72.40
2022-09-09T20:42:41.207Z,72.57
2022-09-09T20:44:42.487Z,72.05
2022-09-09T20:46:43.812Z,72.76
2022-09-09T20:48:45.163Z,72.70
2022-09-09T20:50:46.428Z,73.06
2022-09-09T20:52:48.718Z,73.13
2022-09-09T20:54:51.319Z,72.78
2022-09-09T20:56:52.675Z,73.56
2022-09-09T20:58:53.998Z,71.64
2022-09-09T21:00:59.922Z,70.65
2022-09-09T21:03:02.319Z,69.91
2022-09-09T21:05:03.654Z,70.59
2022-09-09T21:07:07.455Z,70.47
2022-09-09T21:09:08.902Z,70.06
2022-09-09T21:11:10.193Z,71.17
2022-09-09T21:13:11.510Z,71.72
2022-09-09T21:15:12.771Z,71.78
2022-09-09T21:17:14.071Z,72.34
2022-09-09T21:19:15.369Z,72.29
2022-09-09T21:21:16.631Z,72.80
2022-09-09T21:23:18.134Z,72.02
2022-09-09T21:25:19.402Z,72.54
2022-09-09T21:27:21.222Z,72.46
2022-09-09T21:29:24.098Z,72.67
2022-09-09T21:31:28.278Z,72.58
2022-09-09T21:33:29.850Z,71.13
2022-09-09T21:35:31.123Z,72.25
2022-09-09T21:37:32.623Z,71.87
2022-09-09T21:39:33.970Z,71.14
2022-09-09T21:41:36.487Z,70.68
2022-09-09T21:43:37.794Z,70.95
2022-09-09T21:45:39.074Z,70.17
2022-09-09T21:47:40.342Z,69.47
2022-09-09T21:49:41.633Z,69.45
2022-09-09T21:51:42.919Z,71.20
2022-09-09T21:53:44.183Z,71.68
2022-09-09T21:55:47.371Z,71.66
2022-09-09T21:57:50.376Z,71.99
2022-09-09T21:59:52.893Z,71.42
2022-09-09T22:01:54.826Z,72.43
2022-09-09T22:03:56.218Z,72.01
2022-09-09T22:05:58.577Z,72.40
2022-09-09T22:07:59.873Z,72.13
2022-09-09T22:10:01.379Z,72.70
2022-09-09T22:12:02.704Z,71.79
2022-09-09T22:14:04.006Z,72.57
2022-09-09T22:16:05.475Z,72.00
2022-09-09T22:18:06.782Z,71.94
2022-09-09T22:20:08.074Z,72.40
2022-09-09T22:22:09.494Z,72.25
2022-09-09T22:24:11.982Z,72.20
2022-09-09T22:26:13.279Z,71.74
2022-09-09T22:28:14.952Z,72.40
2022-09-09T22:30:16.218Z,72.10
2022-09-09T22:32:17.539Z,72.27
2022-09-09T22:34:20.994Z,72.40
2022-09-09T22:36:22.326Z,72.07
2022-09-09T22:38:23.697Z,72.58
2022-09-09T22:40:25.021Z,72.02
2022-09-09T22:42:26.355Z,72.68
2022-09-09T22:44:27.648Z,70.11
2022-09-09T22:46:29.170Z,66.85
2022-09-09T22:48:30.533Z,69.40
2022-09-09T22:50:31.822Z,69.46
2022-09-09T22:52:33.754Z,70.12
2022-09-09T22:54:35.058Z,70.46
2022-09-09T22:56:36.564Z,71.11
2022-09-09T22:58:37.970Z,71.51
2022-09-09T23:00:41.791Z,71.57
2022-09-09T23:02:43.146Z,72.32
2022-09-09T23:04:45.973Z,72.44
2022-09-09T23:06:47.246Z,72.58
2022-09-09T23:08:49.801Z,72.73
2022-09-09T23:10:53.639Z,73.18
2022-09-09T23:12:56.095Z,73.52
2022-09-09T23:14:57.451Z,73.60
2022-09-09T23:16:59.210Z,73.97
2022-09-09T23:19:03.635Z,74.38
2022-09-09T23:21:06.715Z,74.69
2022-09-09T23:23:08.043Z,74.45
2022-09-09T23:25:09.375Z,75.15
2022-09-09T23:27:10.655Z,74.68
2022-09-09T23:29:14.895Z,75.22
2022-09-09T23:31:16.395Z,74.73
2022-09-09T23:33:17.733Z,75.19
2022-09-09T23:35:19.019Z,75.40
2022-09-09T23:37:20.338Z,75.26
2022-09-09T23:39:23.170Z,75.40
2022-09-09T23:41:24.584Z,75.60
2022-09-09T23:43:26.702Z,75.94
2022-09-09T23:45:28.613Z,75.89
2022-09-09T23:47:29.899Z,75.97
2022-09-09T23:49:31.214Z,75.94
2022-09-09T23:51:33.720Z,75.82
2022-09-09T23:53:35.609Z,76.04
2022-09-09T23:55:36.885Z,76.45
2022-09-09T23:57:38.167Z,76.02
2022-09-09T23:59:39.479Z,76.15
